Weather at Mc Minnville Municipal Airport

Public forecast

Using degrees Fahrenheit for public forecast. Weather courtesy of forecast.io.

Current aviation weather report (METAR) for Mc Minnville Municipal Airport

Retrieved 2021/03/05 03:53 UTC (1 hour ago):

KMMV 050353Z AUTO 04004KT 4SM BR FEW120 08/07 A2999 RMK AO2 SLP157 T00830067

Closest aviation forecast (TAF) to Mc Minnville Municipal Airport

Forecast is more than 6 hours old.

Closest forecast is Aurora State Airport, 15.8 nm (29.3 km) ENE. Retrieved 2021/03/04 18:36 UTC (10 hours ago):

TAF KUAO 041736Z 0418/0518 18006KT P6SM BKN120 OVC200 FM050000 16005KT P6SM -RA OVC070 FM050600 VRB05KT P6SM OVC050 FM051300 17008KT P6SM -RA OVC050